Bell Plain, Illinois
Current Conditions -  °F | °C
As of 12:55 AM on Thursday 27 Nov 2014 (Local Time) from KC75 Reporting Station
Overcast Overcast  
Wind Chill: 21°   Ceiling: 8000
Heat Index: 21°   Visibility: 7mi
Dew Point: 17°   Wind: 3mph
Humidity: 82%   Direction: 320°NW
Pressure: 30.25"   Gusts: NA
Location:  40.9824°N, 89.2315°W
Report Text: KC75 270655Z AUTO 32003KT 7SM SCT070 OVC080 M06/M09 A3025 RMK AO2 T10601086
Loading
Personal Weather Stations






























Interactive Weather Map New forecast layout! Learn more

10-Day Weather Forecast

Advertisements
Track Severe Weather on mobile